Time;durP1;ratioP1;P1;durP2;ratioP2;P2;SDS_P1;SDS_P2;PMS_P1;PMS_P2;Temp;Humidity;BMP_temperature;BMP_pressure;BME280_temperature;BME280_humidity;BME280_pressure;Samples;Min_cycle;Max_cycle;Signal;HPM_P1;HPM_P2
2021/04/01 00:00:48;;;;;;;13.58;12.18;;;;;;;9.95;52.70;102316.80;1728666;81;21149;-50
2021/04/01 00:03:15;;;;;;;13.20;11.88;;;;;;;9.93;52.82;102317.22;1722182;82;21148;-49
2021/04/01 00:05:44;;;;;;;12.37;10.88;;;;;;;9.91;52.88;102315.05;1723674;82;21319;-49
2021/04/01 00:08:12;;;;;;;12.43;11.12;;;;;;;9.89;53.17;102317.64;1724896;82;21605;-50
2021/04/01 00:10:45;;;;;;;11.90;10.32;;;;;;;9.89;52.99;102308.97;1724059;82;21249;-49
2021/04/01 00:13:12;;;;;;;11.78;10.58;;;;;;;9.88;53.05;102313.72;1684327;84;21251;-49
2021/04/01 00:15:42;;;;;;;11.97;10.82;;;;;;;9.89;52.98;102308.97;1681151;84;21196;-49
2021/04/01 00:18:11;;;;;;;13.35;12.00;;;;;;;9.89;53.02;102307.67;1686199;84;21630;-49
2021/04/01 00:20:41;;;;;;;12.98;11.28;;;;;;;9.85;53.06;102302.44;1685534;84;21326;-49
2021/04/01 00:23:09;;;;;;;12.63;11.33;;;;;;;9.82;53.20;102301.56;1676204;84;21326;-49
2021/04/01 00:25:38;;;;;;;16.35;11.43;;;;;;;9.77;53.14;102298.92;1688097;84;21175;-49
2021/04/01 00:28:06;;;;;;;14.10;10.63;;;;;;;9.75;53.08;102298.05;1665855;85;21322;-49
2021/04/01 00:30:33;;;;;;;13.83;10.68;;;;;;;9.75;53.08;102301.95;1676265;84;21401;-50
2021/04/01 00:33:02;;;;;;;12.93;10.58;;;;;;;9.75;53.03;102298.05;1668441;85;21384;-49
2021/04/01 00:35:30;;;;;;;12.23;10.93;;;;;;;9.77;52.92;102298.05;1666495;85;21184;-49
2021/04/01 00:37:59;;;;;;;12.20;10.90;;;;;;;9.76;52.85;102290.70;1666380;85;21294;-49
2021/04/01 00:40:27;;;;;;;11.78;10.58;;;;;;;9.76;52.72;102293.30;1667426;85;21217;-49
2021/04/01 00:42:55;;;;;;;12.85;11.28;;;;;;;9.72;52.59;102288.95;1664626;85;21212;-49
2021/04/01 00:45:23;;;;;;;11.80;10.60;;;;;;;9.68;52.59;102284.59;1665542;85;21152;-49
2021/04/01 00:47:53;;;;;;;12.45;11.25;;;;;;;9.64;52.60;102277.61;1665429;85;21355;-50
2021/04/01 00:50:25;;;;;;;11.03;9.93;;;;;;;9.60;52.43;102278.45;1665714;85;21692;-49
2021/04/01 00:52:53;;;;;;;;;;;;;;;9.56;52.43;102272.79;1668158;85;21148;-50
2021/04/01 00:55:20;;;;;;;13.28;10.13;;;;;;;9.54;52.55;102270.61;1667908;85;20179;-50
2021/04/01 00:57:51;;;;;;;17.05;11.35;;;;;;;9.53;52.76;102268.89;1668559;85;21204;-49
2021/04/01 01:00:24;;;;;;;12.10;10.85;;;;;;;9.53;52.85;102268.89;1668288;85;21219;-50
2021/04/01 01:02:51;;;;;;;11.68;9.78;;;;;;;9.55;52.66;102266.30;1666927;85;21299;-49
2021/04/01 01:05:22;;;;;;;12.20;11.00;;;;;;;9.54;52.52;102257.63;1666632;85;21728;-49
2021/04/01 01:07:50;;;;;;;13.03;11.35;;;;;;;9.53;52.52;102259.80;1670726;85;21176;-50
2021/04/01 01:10:24;;;;;;;13.40;12.00;;;;;;;9.52;52.60;102255.90;1709564;82;21601;-49
2021/04/01 01:12:52;;;;;;;13.00;11.60;;;;;;;9.48;52.28;102252.39;1726828;82;21282;-50
2021/04/01 01:15:22;;;;;;;11.93;10.72;;;;;;;9.45;52.47;102244.59;1734702;82;21161;-49
2021/04/01 01:17:52;;;;;;;12.40;11.20;;;;;;;9.41;52.93;102240.23;1723424;82;21161;-49
2021/04/01 01:20:23;;;;;;;12.75;11.45;;;;;;;9.40;53.22;102238.48;1735845;82;21286;-49
2021/04/01 01:22:53;;;;;;;12.47;11.18;;;;;;;9.39;53.08;102238.06;1649930;86;21166;-49
2021/04/01 01:25:22;;;;;;;12.20;11.00;;;;;;;9.40;53.16;102235.88;1657542;86;21192;-49
2021/04/01 01:27:49;;;;;;;12.25;11.00;;;;;;;9.41;52.81;102231.14;1657596;86;21210;-49
2021/04/01 01:30:20;;;;;;;11.93;10.72;;;;;;;9.40;52.34;102231.11;1635479;86;21236;-49
2021/04/01 01:32:55;;;;;;;15.08;12.50;;;;;;;9.38;52.15;102225.91;1675904;85;21290;-49
2021/04/01 01:35:21;;;;;;;13.35;11.88;;;;;;;9.35;52.07;102226.33;1646832;86;21191;-49
2021/04/01 01:37:58;;;;;;;;;;;;;;;9.32;52.41;102223.70;1669891;85;21312;-51
2021/04/01 01:40:28;;;;;;;11.70;10.50;;;;;;;9.28;52.40;102217.63;1649565;86;20430;-49
2021/04/01 01:42:59;;;;;;;12.65;11.35;;;;;;;9.24;52.57;102221.06;1673150;84;21154;-49
2021/04/01 01:45:28;;;;;;;13.35;11.00;;;;;;;9.23;52.88;102219.34;1651076;86;21159;-49
2021/04/01 01:47:58;;;;;;;12.98;10.38;;;;;;;9.24;52.79;102218.46;1676548;85;21303;-49
2021/04/01 01:50:29;;;;;;;15.70;10.60;;;;;;;9.27;52.43;102210.70;1648219;86;21194;-50
2021/04/01 01:52:56;;;;;;;13.13;11.78;;;;;;;9.27;52.24;102209.83;1669372;85;21638;-50
2021/04/01 01:55:25;;;;;;;13.18;11.08;;;;;;;9.27;52.07;102213.30;1649462;86;21224;-49
2021/04/01 01:57:53;;;;;;;11.68;10.48;;;;;;;9.26;51.77;102205.05;1671532;85;21315;-49
2021/04/01 02:00:46;;;;;;;12.23;10.98;;;;;;;9.26;51.59;102212.84;1646790;86;21279;-50
2021/04/01 02:03:14;;;;;;;14.38;10.78;;;;;;;9.23;51.20;102206.35;1650130;86;21293;-49
2021/04/01 02:05:44;;;;;;;13.55;12.15;;;;;;;9.18;51.36;102208.03;1668478;85;21187;-49
2021/04/01 02:08:13;;;;;;;12.58;11.18;;;;;;;9.13;51.88;102208.41;1649501;86;21182;-49
2021/04/01 02:10:46;;;;;;;13.05;11.75;;;;;;;9.09;52.02;102207.95;1681290;85;21225;-49
2021/04/01 02:13:19;;;;;;;12.30;11.05;;;;;;;9.07;52.42;102205.78;1649173;86;21316;-50
2021/04/01 02:15:50;;;;;;;13.70;11.45;;;;;;;9.08;52.57;102205.36;1669147;85;21147;-49
2021/04/01 02:18:21;;;;;;;16.17;12.43;;;;;;;9.09;52.47;102201.46;1648088;86;21233;-49
2021/04/01 02:20:51;;;;;;;14.23;11.35;;;;;;;9.11;52.41;102197.61;1724773;82;21185;-49
2021/04/01 02:23:21;;;;;;;13.48;11.93;;;;;;;9.10;52.29;102191.53;1733071;82;21168;-49
2021/04/01 02:25:50;;;;;;;13.53;12.05;;;;;;;9.09;52.27;102194.97;1732209;82;21145;-49
2021/04/01 02:28:20;;;;;;;13.95;11.50;;;;;;;9.06;52.53;102200.16;1733803;82;21158;-49
2021/04/01 02:30:52;;;;;;;14.55;11.85;;;;;;;9.07;52.47;102199.28;1730825;82;21194;-49
2021/04/01 02:33:20;;;;;;;;;;;;;;;9.03;52.49;102197.52;1750038;82;21188;-49
2021/04/01 02:35:48;;;;;;;13.35;11.30;;;;;;;9.00;52.54;102202.71;1740901;82;20408;-50
2021/04/01 02:38:16;;;;;;;16.80;11.88;;;;;;;8.93;52.81;102204.38;1738053;82;21318;-49
2021/04/01 02:40:45;;;;;;;14.33;11.03;;;;;;;8.91;53.00;102206.52;1737429;82;21156;-49
2021/04/01 02:43:18;;;;;;;14.15;11.00;;;;;;;8.90;53.24;102208.23;1732557;82;21285;-49
2021/04/01 02:45:43;;;;;;;17.17;11.90;;;;;;;8.88;53.42;102202.62;1738301;82;21121;-49
2021/04/01 02:48:12;;;;;;;15.05;13.45;;;;;;;8.89;53.83;102195.26;1733851;82;21157;-49
2021/04/01 02:50:42;;;;;;;18.42;16.32;;;;;;;8.86;54.55;102203.04;1740715;82;21157;-50
2021/04/01 02:53:10;;;;;;;17.55;15.75;;;;;;;8.84;55.15;102198.27;1738425;82;21325;-49
2021/04/01 02:55:38;;;;;;;17.10;15.35;;;;;;;8.87;55.52;102196.97;1736095;82;21572;-49
2021/04/01 02:58:07;;;;;;;19.87;16.50;;;;;;;8.91;55.90;102192.24;1742621;82;21160;-49
2021/04/01 03:00:37;;;;;;;17.85;15.95;;;;;;;8.96;56.24;102187.97;1735142;82;21569;-49
2021/04/01 03:03:13;;;;;;;21.95;17.62;;;;;;;9.03;56.47;102186.30;1739779;82;21204;-49
2021/04/01 03:05:39;;;;;;;20.60;17.95;;;;;;;9.09;56.55;102188.48;1734472;82;21184;-49
2021/04/01 03:08:07;;;;;;;22.60;18.17;;;;;;;9.14;56.66;102180.73;1745256;82;21157;-49
2021/04/01 03:10:35;;;;;;;23.12;18.02;;;;;;;9.19;56.66;102181.19;1739235;82;21172;-49
2021/04/01 03:13:03;;;;;;;21.55;18.40;;;;;;;9.23;56.76;102175.19;1739401;82;21151;-49
2021/04/01 03:15:31;;;;;;;28.98;20.80;;;;;;;9.28;56.79;102178.66;1741676;81;21153;-49
2021/04/01 03:17:59;;;;;;;25.32;21.02;;;;;;;9.32;56.89;102172.63;1732839;82;21164;-49
2021/04/01 03:20:28;;;;;;;22.75;20.35;;;;;;;9.51;56.99;102178.38;1744798;82;21160;-50
2021/04/01 03:22:56;;;;;;;27.48;21.80;;;;;;;9.45;57.51;102174.44;1733274;82;21185;-50
2021/04/01 03:25:24;;;;;;;30.05;21.52;;;;;;;9.60;57.19;102177.09;1741248;82;21168;-49
2021/04/01 03:27:54;;;;;;;24.32;20.05;;;;;;;9.66;57.10;102181.05;1733581;82;21140;-49
2021/04/01 03:30:23;;;;;;;22.73;19.12;;;;;;;9.69;57.08;102175.85;1736711;82;21302;-50
2021/04/01 03:32:50;;;;;;;25.55;19.95;;;;;;;9.74;56.96;102174.58;1725453;81;21211;-49
2021/04/01 03:35:22;;;;;;;21.90;19.60;;;;;;;9.78;56.73;102179.80;1724052;82;21133;-50
2021/04/01 03:40:31;;;;;;;22.55;18.85;;;;;;;9.87;56.23;102169.00;1767376;79;23080;-50
2021/04/01 03:42:59;;;;;;;23.92;19.55;;;;;;;9.81;56.24;102169.39;1744487;82;21140;-50
2021/04/01 03:45:27;;;;;;;21.93;17.48;;;;;;;9.81;56.30;102171.12;1734958;82;21546;-50
2021/04/01 03:47:57;;;;;;;20.00;17.60;;;;;;;9.79;56.46;102168.52;1739584;82;21156;-51
2021/04/01 03:50:25;;;;;;;19.37;16.35;;;;;;;9.79;56.38;102166.34;1739472;82;21169;-51
2021/04/01 03:52:53;;;;;;;17.42;14.38;;;;;;;9.77;56.19;102165.05;1734703;82;21318;-50
2021/04/01 03:57:55;;;;;;;15.58;13.68;;;;;;;9.67;54.72;102168.48;1735465;82;21152;-49
2021/04/01 04:00:32;;;;;;;16.45;12.47;;;;;;;9.55;54.48;102174.92;1735201;82;21113;-50
2021/04/01 04:05:37;;;;;;;15.23;13.03;;;;;;;9.50;54.30;102172.72;1745666;82;21180;-50
2021/04/01 04:11:01;;;;;;;14.35;12.37;;;;;;;9.65;53.47;102177.12;1739290;82;21149;-49
2021/04/01 04:13:25;;;;;;;11.93;10.75;;;;;;;9.62;53.04;102168.03;1740611;82;21156;-50
2021/04/01 04:15:53;;;;;;;;;;;;;;;9.60;52.94;102169.75;1745021;82;21596;-50
2021/04/01 04:18:21;;;;;;;12.75;11.45;;;;;;;9.61;52.93;102171.05;1740387;82;20137;-50
2021/04/01 04:20:50;;;;;;;13.25;11.68;;;;;;;9.60;52.98;102166.70;1734783;82;21632;-50
2021/04/01 04:23:19;;;;;;;14.03;12.05;;;;;;;9.62;52.99;102170.17;1744183;82;21290;-49
2021/04/01 04:25:47;;;;;;;15.48;13.15;;;;;;;9.63;53.04;102171.05;1732014;82;21208;-50
2021/04/01 04:28:21;;;;;;;14.80;12.50;;;;;;;9.55;53.64;102167.55;1743315;82;21287;-50
2021/04/01 04:30:45;;;;;;;14.80;12.85;;;;;;;9.55;53.91;102163.23;1743571;82;21168;-50
2021/04/01 04:33:13;;;;;;;14.87;12.18;;;;;;;9.60;53.98;102161.95;1736768;82;21172;-50
2021/04/01 04:35:41;;;;;;;15.50;12.88;;;;;;;9.59;53.62;102162.37;1738854;82;21556;-50
2021/04/01 04:38:09;;;;;;;13.50;12.10;;;;;;;9.61;53.37;102158.06;1737887;82;21192;-50
2021/04/01 04:40:37;;;;;;;14.30;12.73;;;;;;;9.64;52.99;102163.25;1739474;81;21156;-50
2021/04/01 04:43:05;;;;;;;14.90;12.80;;;;;;;9.68;53.02;102162.44;1737173;82;21545;-50
2021/04/01 04:45:33;;;;;;;14.20;11.08;;;;;;;9.70;53.26;102158.11;1734342;82;21180;-49
2021/04/01 04:48:02;;;;;;;15.30;12.18;;;;;;;9.72;52.84;102155.51;1749707;82;21287;-50
2021/04/01 04:50:30;;;;;;;12.65;11.35;;;;;;;9.76;52.74;102155.53;1740944;82;21305;-50
2021/04/01 04:52:59;;;;;;;13.10;11.78;;;;;;;9.83;52.67;102161.17;1738813;82;21125;-50
2021/04/01 04:55:27;;;;;;;14.20;12.75;;;;;;;9.91;52.59;102164.24;1732732;82;21179;-49
2021/04/01 05:06:03;;;;;;;17.45;14.38;;;;;;;10.05;52.68;102159.95;1773458;79;23549;-50
2021/04/01 05:08:32;;;;;;;18.73;15.88;;;;;;;10.02;52.89;102157.32;1740893;82;21178;-50
2021/04/01 05:11:00;;;;;;;21.15;16.87;;;;;;;10.04;53.09;102159.07;1738104;82;21160;-49
2021/04/01 05:13:29;;;;;;;18.73;16.23;;;;;;;10.06;53.52;102155.16;1738622;82;21220;-50
2021/04/01 05:15:57;;;;;;;19.50;17.23;;;;;;;10.09;54.01;102153.89;1737809;82;21168;-50
2021/04/01 05:18:27;;;;;;;21.15;18.55;;;;;;;10.16;54.26;102154.39;1740282;82;21204;-50
2021/04/01 05:20:56;;;;;;;27.15;22.35;;;;;;;10.17;54.40;102153.08;1730159;82;22315;-50
2021/04/01 05:23:36;;;;;;;27.85;22.80;;;;;;;10.21;54.60;102156.55;1737200;82;21156;-50
2021/04/01 05:28:36;;;;;;;25.90;20.50;;;;;;;10.20;54.32;102147.02;1736678;82;21315;-50
2021/04/01 05:31:09;;;;;;;;;;;;;;;10.20;53.75;102145.72;1733625;82;21148;-50
2021/04/01 05:33:37;;;;;;;27.13;21.82;;;;;;;10.18;53.39;102146.16;1743861;82;20200;-50
2021/04/01 05:36:10;;;;;;;24.50;20.68;;;;;;;10.18;52.81;102148.75;1742188;81;21175;-50
2021/04/01 05:38:39;;;;;;;26.95;21.62;;;;;;;10.15;52.65;102138.33;1730421;82;21141;-49
2021/04/01 05:41:10;;;;;;;32.42;23.45;;;;;;;10.16;52.60;102148.73;1734187;82;21169;-50
2021/04/01 06:06:11;;;;;;;20.62;16.57;;;;;;;11.55;48.84;102126.90;1805985;79;23402;-50
2021/04/01 06:08:46;;;;;;;20.25;16.05;;;;;;;11.73;48.45;102130.76;1780891;80;22202;-50
2021/04/01 06:11:13;;;;;;;18.37;15.60;;;;;;;11.95;48.32;102131.11;1776185;80;21144;-50
2021/04/01 06:14:07;;;;;;;19.10;16.70;;;;;;;12.16;47.58;102124.00;1774602;80;21101;-50
2021/04/01 06:16:29;;;;;;;19.73;16.90;;;;;;;12.26;47.51;102130.05;1774109;80;21297;-50
2021/04/01 06:18:57;;;;;;;23.45;19.57;;;;;;;12.34;47.05;102126.94;1773353;80;21273;-51
2021/04/01 06:21:26;;;;;;;23.42;20.05;;;;;;;12.44;47.08;102129.91;1758559;80;21144;-50
2021/04/01 06:24:08;;;;;;;24.65;20.82;;;;;;;12.54;46.60;102123.73;1781245;80;21291;-50
2021/04/01 06:26:26;;;;;;;40.08;27.55;;;;;;;12.61;46.20;102121.94;1778595;80;21564;-50
2021/04/01 06:28:58;;;;;;;27.35;22.22;;;;;;;12.62;46.06;102127.14;1766350;80;21322;-50
2021/04/01 06:31:28;;;;;;;22.10;19.75;;;;;;;12.58;46.21;102124.13;1778503;80;21132;-50
2021/04/01 06:36:27;;;;;;;20.35;17.55;;;;;;;12.59;46.45;102123.70;1644882;85;21350;-49
2021/04/01 06:39:01;;;;;;;27.05;24.12;;;;;;;12.64;46.43;102122.77;1790223;78;28780;-49
2021/04/01 06:41:30;;;;;;;22.15;19.92;;;;;;;12.72;46.24;102126.18;1777727;80;21727;-50
2021/04/01 06:44:14;;;;;;;21.65;18.85;;;;;;;12.88;45.98;102125.15;1787209;80;21127;-50
2021/04/01 06:46:45;;;;;;;21.17;17.95;;;;;;;13.02;46.05;102125.88;1704887;83;21605;-49
2021/04/01 06:52:20;;;;;;;20.48;17.70;;;;;;;13.52;46.04;102124.48;1771466;79;23117;-50
2021/04/01 07:03:08;;;;;;;20.70;17.92;;;;;;;13.82;44.64;102122.81;1726945;82;21192;-51
2021/04/01 07:06:05;;;;;;;20.23;18.02;;;;;;;13.80;44.43;102115.42;1730282;82;21125;-50
2021/04/01 07:08:44;;;;;;;21.70;19.40;;;;;;;13.85;44.16;102116.20;1734312;82;21187;-50
2021/04/01 07:11:12;;;;;;;18.70;16.73;;;;;;;13.91;43.77;102115.28;1641202;86;21187;-50
2021/04/01 07:13:48;;;;;;;23.12;18.17;;;;;;;13.96;43.99;102118.25;1642813;87;21225;-50
2021/04/01 07:16:29;;;;;;;22.93;19.20;;;;;;;14.07;44.19;102118.09;1640065;87;21203;-50
2021/04/01 07:19:15;;;;;;;24.85;19.07;;;;;;;14.16;44.19;102112.27;1775659;79;23069;-50
2021/04/01 07:48:50;;;;;;;16.90;15.13;;;;;;;14.03;43.86;102100.28;1740159;82;21132;-49
2021/04/01 07:54:12;;;;;;;19.45;17.05;;;;;;;13.87;45.18;102092.20;1683227;85;21152;-49
2021/04/01 07:56:49;;;;;;;16.82;15.03;;;;;;;13.84;45.79;102093.12;1682661;85;21208;-50
2021/04/01 08:04:43;;;;;;;20.23;15.25;;;;;;;13.92;46.99;102083.85;1677725;85;21183;-50
2021/04/01 08:07:13;;;;;;;18.15;14.68;;;;;;;13.98;46.77;102081.14;1669678;85;21156;-49
2021/04/01 08:09:49;;;;;;;18.52;15.63;;;;;;;14.03;46.92;102081.95;1682563;85;21176;-50
2021/04/01 08:12:27;;;;;;;17.50;15.75;;;;;;;14.08;46.94;102077.94;1680050;85;21360;-50
2021/04/01 08:15:11;;;;;;;18.60;15.65;;;;;;;14.11;47.10;102076.16;1682898;85;21127;-49
2021/04/01 08:17:47;;;;;;;19.27;14.98;;;;;;;14.16;47.38;102073.44;1691408;84;21352;-48
2021/04/01 08:20:26;;;;;;;14.98;13.08;;;;;;;14.23;47.31;102077.27;1673632;84;21624;-50
2021/04/01 08:25:38;;;;;;;;;;;;;;;14.34;47.17;102075.36;1711169;83;21238;-48
2021/04/01 08:31:21;;;;;;;17.12;14.50;;;;;;;14.47;47.08;102067.73;1805326;79;23073;-50
2021/04/01 08:33:52;;;;;;;16.93;15.23;;;;;;;14.45;46.86;102068.20;1685875;83;21250;-49
2021/04/01 08:36:23;;;;;;;17.90;15.65;;;;;;;14.45;46.95;102059.03;1762994;79;23069;-50
2021/04/01 08:38:54;;;;;;;18.95;16.95;;;;;;;14.38;47.19;102067.91;1739223;82;21204;-50
2021/04/01 08:41:44;;;;;;;18.85;16.85;;;;;;;14.36;47.11;102066.20;1722586;82;21125;-50
2021/04/01 08:44:29;;;;;;;20.30;18.00;;;;;;;14.32;47.29;102058.81;1733252;82;21600;-50
2021/04/01 08:47:42;;;;;;;20.70;18.52;;;;;;;14.26;47.80;102053.64;1727351;82;21133;-49
2021/04/01 08:53:28;;;;;;;21.55;19.25;;;;;;;14.15;48.36;102052.09;1763888;79;23090;-49
2021/04/01 08:56:31;;;;;;;19.07;17.10;;;;;;;14.04;48.74;102057.49;1727310;82;21573;-50
2021/04/01 08:59:08;;;;;;;20.15;18.05;;;;;;;14.00;48.87;102051.89;1731373;82;21121;-51
2021/04/01 09:01:39;;;;;;;20.68;18.55;;;;;;;13.98;49.04;102045.81;1649768;86;21164;-49
2021/04/01 09:04:08;;;;;;;22.02;19.73;;;;;;;13.98;49.44;102044.50;1619200;88;21664;-49
2021/04/01 09:06:41;;;;;;;20.62;18.45;;;;;;;14.02;49.37;102044.88;1649946;86;21172;-49
2021/04/01 09:09:25;;;;;;;21.75;18.92;;;;;;;14.05;49.38;102040.92;1624713;86;21176;-49
2021/04/01 09:17:12;;;;;;;27.58;19.32;;;;;;;14.22;49.39;102038.03;1812862;79;23126;-49
2021/04/01 09:19:42;;;;;;;23.90;19.62;;;;;;;14.11;49.64;102038.20;1725148;83;21156;-49
2021/04/01 09:22:20;;;;;;;20.95;18.80;;;;;;;14.10;49.75;102036.45;1715957;83;21609;-51
2021/04/01 09:25:02;;;;;;;21.33;19.12;;;;;;;14.12;49.49;102034.68;1719850;82;21173;-50
2021/04/01 09:27:53;;;;;;;21.57;19.37;;;;;;;14.12;49.54;102026.83;1802292;79;23067;-49
2021/04/01 09:30:23;;;;;;;23.52;19.57;;;;;;;14.05;49.47;102034.38;1726313;83;21136;-51
2021/04/01 09:32:53;;;;;;;20.75;18.55;;;;;;;13.98;49.86;102031.42;1733248;81;21144;-51
2021/04/01 09:35:21;;;;;;;21.17;18.98;;;;;;;13.92;49.99;102034.14;1693798;83;21281;-51
2021/04/01 09:37:56;;;;;;;21.97;19.12;;;;;;;13.86;50.47;102032.92;1692601;83;21178;-51
2021/04/01 09:40:32;;;;;;;22.30;19.62;;;;;;;13.84;50.35;102025.54;1744774;81;21565;-50
2021/04/01 09:43:19;;;;;;;23.85;20.37;;;;;;;13.83;50.70;102029.90;1719675;83;21116;-50
2021/04/01 09:45:49;;;;;;;21.68;19.10;;;;;;;13.85;50.53;102020.71;1632298;87;21245;-50
2021/04/01 09:48:22;;;;;;;23.15;20.75;;;;;;;13.84;50.88;102013.33;1696318;84;21653;-50
2021/04/01 09:51:00;;;;;;;27.80;20.65;;;;;;;13.87;51.00;102005.85;1808244;78;23068;-50
2021/04/01 09:53:25;;;;;;;28.40;21.97;;;;;;;13.85;50.81;102016.78;1781310;80;21128;-50
2021/04/01 09:55:57;;;;;;;26.75;21.45;;;;;;;13.81;50.97;102009.87;1724273;83;21127;-49
2021/04/01 09:58:31;;;;;;;24.43;21.27;;;;;;;13.85;50.72;102008.94;1720498;83;21176;-48
2021/04/01 10:04:20;;;;;;;27.62;19.65;;;;;;;13.90;50.55;102000.59;1810656;79;23539;-50
2021/04/01 10:06:50;;;;;;;22.22;19.90;;;;;;;13.89;50.53;102001.02;1779881;80;21262;-50
2021/04/01 10:09:23;;;;;;;23.27;20.77;;;;;;;13.92;50.15;101998.81;1773241;80;21708;-50
2021/04/01 10:12:00;;;;;;;;;;;;;;;13.92;49.93;101995.32;1708984;83;21142;-48
2021/04/01 10:14:28;;;;;;;21.60;18.98;;;;;;;13.91;50.18;101994.45;1709653;83;20186;-51
2021/04/01 10:17:06;;;;;;;21.10;18.92;;;;;;;13.94;50.04;101993.11;1705842;83;21654;-50
2021/04/01 10:19:56;;;;;;;22.05;19.62;;;;;;;14.00;49.97;101995.63;1714947;83;21154;-50
2021/04/01 10:22:29;;;;;;;24.82;20.75;;;;;;;14.04;50.02;101989.45;1725039;81;21209;-50
2021/04/01 10:27:53;;;;;;;19.98;17.75;;;;;;;14.10;49.99;101979.31;1716828;83;21316;-50
2021/04/01 10:30:21;;;;;;;20.95;18.75;;;;;;;14.14;49.63;101976.63;1711754;83;21170;-50
2021/04/01 10:32:55;;;;;;;24.02;16.35;;;;;;;14.17;49.97;101967.42;1692722;83;21175;-50
2021/04/01 10:35:24;;;;;;;17.98;15.13;;;;;;;14.25;49.54;101966.84;1676989;83;21110;-50
2021/04/01 10:37:57;;;;;;;20.55;16.50;;;;;;;14.26;49.57;101963.31;1714534;83;21192;-50
2021/04/01 10:40:27;;;;;;;21.33;16.55;;;;;;;14.31;49.72;101958.91;1716191;83;21646;-51
2021/04/01 10:43:09;;;;;;;19.05;17.05;;;;;;;14.40;49.42;101965.30;1716371;83;21145;-50
2021/04/01 10:45:46;;;;;;;20.35;16.35;;;;;;;14.46;49.17;101953.41;1714610;83;21117;-50
2021/04/01 10:48:24;;;;;;;20.77;16.87;;;;;;;14.51;49.08;101954.16;1711730;83;21296;-50
2021/04/01 10:50:55;;;;;;;22.07;16.80;;;;;;;14.55;49.08;101950.59;1717642;82;21192;-50
2021/04/01 10:53:24;;;;;;;22.70;17.07;;;;;;;14.59;48.46;101944.40;1719155;83;21233;-50
2021/04/01 10:55:53;;;;;;;19.50;16.55;;;;;;;14.59;48.41;101944.40;1716937;83;21212;-50
2021/04/01 10:58:24;;;;;;;19.52;16.90;;;;;;;14.62;48.48;101935.19;1708897;83;21621;-50
2021/04/01 11:00:56;;;;;;;18.32;16.42;;;;;;;14.63;48.28;101939.52;1693302;83;21098;-50
2021/04/01 11:03:45;;;;;;;19.98;17.37;;;;;;;14.62;48.50;101929.95;1697406;83;21151;-50
2021/04/01 11:06:20;;;;;;;18.27;16.35;;;;;;;14.68;48.41;101929.83;1808319;79;22973;-49
2021/04/01 11:08:50;;;;;;;18.82;15.65;;;;;;;14.66;48.16;101923.75;1773039;80;21160;-50
2021/04/01 11:11:19;;;;;;;18.55;16.12;;;;;;;14.67;48.07;101918.91;1751043;80;21144;-49
2021/04/01 11:13:47;;;;;;;18.60;15.15;;;;;;;14.68;48.02;101916.73;1757923;80;21673;-50
2021/04/01 11:16:17;;;;;;;17.52;15.40;;;;;;;14.69;47.77;101915.81;1774953;80;21266;-49
2021/04/01 11:18:50;;;;;;;18.75;16.25;;;;;;;14.69;48.00;101913.20;1784593;80;21207;-49
2021/04/01 11:21:20;;;;;;;18.32;15.35;;;;;;;14.66;47.93;101905.41;1774806;80;21168;-51
2021/04/01 11:23:49;;;;;;;17.23;15.43;;;;;;;14.68;47.90;101906.25;1773942;80;21223;-50
2021/04/01 11:26:17;;;;;;;18.50;15.55;;;;;;;14.71;48.06;101904.02;1754375;80;21607;-50
2021/04/01 11:28:50;;;;;;;16.05;14.35;;;;;;;14.75;47.77;101900.44;1748043;80;21176;-49
2021/04/01 11:31:28;;;;;;;16.05;14.40;;;;;;;14.80;47.79;101899.01;1783786;78;21135;-50
2021/04/01 11:33:59;;;;;;;20.00;16.35;;;;;;;14.89;47.71;101896.20;1776371;80;21148;-50
2021/04/01 11:36:33;;;;;;;20.10;16.60;;;;;;;14.94;47.83;101889.96;1679678;84;21661;-51
2021/04/01 11:39:00;;;;;;;21.65;16.87;;;;;;;15.04;47.41;101878.84;1672570;84;21181;-50
2021/04/01 11:41:30;;;;;;;18.03;15.33;;;;;;;15.13;47.13;101880.80;1677491;84;21221;-50
2021/04/01 11:43:58;;;;;;;19.57;16.60;;;;;;;15.21;46.96;101872.75;1676789;84;21725;-50
2021/04/01 11:46:31;;;;;;;21.07;15.88;;;;;;;15.27;46.88;101867.40;1682813;84;21200;-50
2021/04/01 11:49:00;;;;;;;18.35;16.48;;;;;;;15.33;46.88;101867.25;1688864;84;21602;-50
2021/04/01 11:51:34;;;;;;;20.17;15.80;;;;;;;15.36;46.71;101862.78;1686994;84;21224;-50
2021/04/01 11:54:08;;;;;;;20.00;15.18;;;;;;;15.40;46.48;101858.31;1671271;84;21204;-50
2021/04/01 11:56:41;;;;;;;18.95;16.70;;;;;;;15.43;46.43;101855.67;1678873;84;21152;-50
2021/04/01 11:59:17;;;;;;;18.82;16.20;;;;;;;15.44;46.26;101850.37;1678119;84;21198;-49
2021/04/01 12:01:55;;;;;;;17.02;15.03;;;;;;;15.46;46.22;101850.33;1668198;84;21138;-50
2021/04/01 12:04:31;;;;;;;17.87;16.00;;;;;;;15.51;45.97;101839.30;1803358;79;23513;-50
2021/04/01 12:06:59;;;;;;;18.17;15.85;;;;;;;15.48;46.20;101839.35;1756899;81;21108;-50
2021/04/01 12:09:28;;;;;;;22.75;15.28;;;;;;;15.48;46.10;101836.73;1781015;80;21170;-50
2021/04/01 12:11:56;;;;;;;18.80;15.70;;;;;;;15.48;46.19;101831.48;1788751;80;21302;-50
2021/04/01 12:14:38;;;;;;;17.98;15.05;;;;;;;15.49;46.07;101829.28;1784366;80;21140;-50
2021/04/01 12:17:07;;;;;;;17.35;15.55;;;;;;;15.48;46.13;101819.68;1723989;83;21198;-50
2021/04/01 12:19:36;;;;;;;17.27;14.98;;;;;;;15.48;46.21;101824.48;1728376;83;21170;-50
2021/04/01 12:22:09;;;;;;;17.95;15.68;;;;;;;15.49;46.04;101816.17;1725289;83;21171;-50
2021/04/01 12:24:37;;;;;;;18.77;14.53;;;;;;;15.51;45.95;101809.56;1724881;81;21153;-50
2021/04/01 12:27:06;;;;;;;18.35;15.15;;;;;;;15.53;45.76;101816.95;1718588;82;21203;-50
2021/04/01 12:29:50;;;;;;;16.70;15.00;;;;;;;15.53;45.64;101812.57;1755085;81;21605;-50
2021/04/01 12:32:32;;;;;;;22.48;15.88;;;;;;;15.53;45.70;101812.57;1752769;81;21302;-51
2021/04/01 12:35:11;;;;;;;15.68;14.05;;;;;;;15.52;45.91;101806.89;1737567;81;21164;-49
2021/04/01 12:37:59;;;;;;;19.67;15.18;;;;;;;15.55;45.85;101801.59;1806444;79;22931;-50
2021/04/01 12:40:27;;;;;;;18.27;15.45;;;;;;;15.52;45.92;101800.81;1748246;81;21195;-51
2021/04/01 12:43:09;;;;;;;18.17;16.27;;;;;;;15.50;45.98;101802.14;1745900;81;21635;-50
2021/04/01 12:45:43;;;;;;;22.32;19.92;;;;;;;15.49;46.28;101797.81;1782166;79;28255;-49
2021/04/01 12:48:17;;;;;;;18.62;16.62;;;;;;;15.44;46.47;101798.36;1772761;80;21135;-48
2021/04/01 12:50:48;;;;;;;20.82;16.82;;;;;;;15.46;46.17;101795.25;1768930;80;21257;-47
2021/04/01 12:53:21;;;;;;;21.62;15.40;;;;;;;15.46;46.24;101792.63;1764182;80;21304;-48
2021/04/01 12:55:54;;;;;;;17.57;15.78;;;;;;;15.43;46.50;101782.23;1760667;80;21148;-49
2021/04/01 12:58:37;;;;;;;17.60;15.23;;;;;;;15.42;46.69;101780.45;1711816;80;21158;-49
2021/04/01 13:01:13;;;;;;;17.90;15.68;;;;;;;15.57;46.34;101778.80;1763118;80;21128;-48
2021/04/01 13:03:47;;;;;;;17.42;15.63;;;;;;;15.58;46.57;101771.32;1814472;79;22717;-50
2021/04/01 13:06:20;;;;;;;16.93;15.23;;;;;;;15.55;46.54;101771.42;1776747;80;21271;-49
2021/04/01 13:11:32;;;;;;;18.95;15.00;;;;;;;15.55;46.96;101775.36;1769976;80;21184;-50
2021/04/01 13:14:01;;;;;;;18.90;15.30;;;;;;;15.57;46.96;101765.68;1719613;83;21188;-50
2021/04/01 13:16:29;;;;;;;19.70;15.25;;;;;;;15.62;46.98;101753.77;1723954;82;21574;-50
2021/04/01 13:18:57;;;;;;;21.10;17.45;;;;;;;15.66;46.82;101758.86;1727168;82;21117;-50
2021/04/01 13:21:31;;;;;;;16.90;15.13;;;;;;;15.66;46.78;101753.61;1726020;82;21157;-50
2021/04/01 13:26:40;;;;;;;17.70;15.70;;;;;;;15.62;46.90;101749.34;1801396;79;23067;-49
2021/04/01 13:29:09;;;;;;;17.90;15.50;;;;;;;15.59;46.75;101750.76;1789523;80;21108;-49
2021/04/01 13:31:48;;;;;;;18.48;16.57;;;;;;;15.61;46.69;101741.09;1777107;80;21159;-49
2021/04/01 13:39:28;;;;;;;22.02;16.75;;;;;;;15.58;46.49;101728.52;1726615;83;21311;-50